EGWU

RAF Northolt Airport

London, United Kingdom
METAR EGWU 241450Z 35004KT 9999 FEW045 BKN250 25/05 Q1024 NOSIG
Observed Flight Rules
Jun-24 @ 14:50 UTC (12 minutes ago) Visual Flight Rules
Wind Visibility Clouds
350° at 4 knots 10,000+ meters
  • Few at 4,500' AGL
  • Broken at 25,000' AGL
Temperatures Readings
Current 25°C / 77°F
Dewpoint 5°C / 41°F
Humidity 28%
Altimeter 30.24" Hg
Pressure 1024 hPa
Elevation 40
METAR EGWU 241450Z 35004KT 9999 FEW045 BKN250 25/05 Q1024 NOSIG
Observed Flight Rules
Jun-24 @ 14:50 UTC
(12 minutes ago)
VFR
Wind Visibility
350° at 4 knots 10,000+ meters
Clouds
  • Few at 4,500' AGL
  • Broken at 25,000' AGL
Temperature Dewpoint
25°C / 77°F 5°C / 41°F
Humidity Altimeter Pressure
28% 30.24" Hg 1024 hPa